sensor_id;sensor_type;location;lat;lon;timestamp;pressure;altitude;pressure_sealevel;temperature;humidity
49877;BME280;35771;48.978;9.294;2022-08-19T07:33:21;98628.88;;;19.90;91.85
49877;BME280;35771;48.978;9.294;2022-08-19T07:35:48;98628.41;;;19.98;91.03
49877;BME280;35771;48.978;9.294;2022-08-19T07:38:15;98632.16;;;20.14;90.07
49877;BME280;35771;48.978;9.294;2022-08-19T07:40:43;98624.03;;;20.30;88.36
49877;BME280;35771;48.978;9.294;2022-08-19T07:43:11;98628.47;;;20.31;88.09
49877;BME280;35771;48.978;9.294;2022-08-19T07:45:37;98627.31;;;20.27;88.10
49877;BME280;35771;48.978;9.294;2022-08-19T07:48:04;98632.06;;;20.31;88.18
49877;BME280;35771;48.978;9.294;2022-08-19T07:50:32;98628.22;;;20.32;87.21
49877;BME280;35771;48.978;9.294;2022-08-19T07:52:58;98627.97;;;20.39;87.57
49877;BME280;35771;48.978;9.294;2022-08-19T07:55:25;98634.28;;;20.34;88.06
49877;BME280;35771;48.978;9.294;2022-08-19T07:57:52;98637.41;;;20.43;88.06
49877;BME280;35771;48.978;9.294;2022-08-19T08:00:18;98633.31;;;20.51;86.84
49877;BME280;35771;48.978;9.294;2022-08-19T08:02:45;98631.25;;;20.36;87.61
49877;BME280;35771;48.978;9.294;2022-08-19T08:05:11;98639.94;;;20.50;87.09
49877;BME280;35771;48.978;9.294;2022-08-19T08:07:57;98628.34;;;20.48;87.43
49877;BME280;35771;48.978;9.294;2022-08-19T08:10:52;98609.84;;;20.48;86.86
49877;BME280;35771;48.978;9.294;2022-08-19T08:13:19;98628.53;;;20.68;86.08
49877;BME280;35771;48.978;9.294;2022-08-19T08:15:46;98640.94;;;20.66;85.90
49877;BME280;35771;48.978;9.294;2022-08-19T08:18:12;98638.22;;;20.71;86.38
49877;BME280;35771;48.978;9.294;2022-08-19T08:20:39;98639.69;;;20.84;86.02
49877;BME280;35771;48.978;9.294;2022-08-19T08:23:07;98650.59;;;21.01;84.39
49877;BME280;35771;48.978;9.294;2022-08-19T08:25:50;98641.47;;;21.00;84.63
49877;BME280;35771;48.978;9.294;2022-08-19T08:28:18;98649.22;;;21.03;83.86
49877;BME280;35771;48.978;9.294;2022-08-19T08:30:45;98638.72;;;21.06;83.47
49877;BME280;35771;48.978;9.294;2022-08-19T08:33:13;98640.50;;;21.22;83.02
49877;BME280;35771;48.978;9.294;2022-08-19T08:35:40;98648.81;;;21.27;82.72
49877;BME280;35771;48.978;9.294;2022-08-19T08:38:09;98638.88;;;21.26;82.43
49877;BME280;35771;48.978;9.294;2022-08-19T08:40:39;98641.97;;;21.35;82.73
49877;BME280;35771;48.978;9.294;2022-08-19T08:43:17;98646.13;;;21.43;82.46
49877;BME280;35771;48.978;9.294;2022-08-19T08:45:50;98640.88;;;21.41;82.59
49877;BME280;35771;48.978;9.294;2022-08-19T08:48:22;98644.19;;;21.38;82.62
49877;BME280;35771;48.978;9.294;2022-08-19T08:50:50;98651.06;;;21.35;82.19
49877;BME280;35771;48.978;9.294;2022-08-19T08:53:21;98645.53;;;21.35;82.39
49877;BME280;35771;48.978;9.294;2022-08-19T08:55:48;98631.97;;;21.29;83.17
49877;BME280;35771;48.978;9.294;2022-08-19T08:58:17;98623.38;;;21.25;82.66
49877;BME280;35771;48.978;9.294;2022-08-19T09:00:48;98627.00;;;21.36;82.91
49877;BME280;35771;48.978;9.294;2022-08-19T09:03:17;98617.09;;;21.40;82.45
49877;BME280;35771;48.978;9.294;2022-08-19T09:05:51;98627.44;;;21.60;81.86
49877;BME280;35771;48.978;9.294;2022-08-19T09:08:39;98625.28;;;21.83;80.66
49877;BME280;35771;48.978;9.294;2022-08-19T09:11:10;98624.81;;;22.06;79.37
49877;BME280;35771;48.978;9.294;2022-08-19T09:13:44;98632.03;;;22.28;77.81
49877;BME280;35771;48.978;9.294;2022-08-19T09:16:18;98621.28;;;22.32;77.33
49877;BME280;35771;48.978;9.294;2022-08-19T09:18:49;98628.16;;;22.24;78.41
49877;BME280;35771;48.978;9.294;2022-08-19T09:21:18;98624.56;;;22.23;77.61
49877;BME280;35771;48.978;9.294;2022-08-19T09:23:46;98630.41;;;22.32;78.53
49877;BME280;35771;48.978;9.294;2022-08-19T09:26:15;98633.75;;;22.34;78.33
49877;BME280;35771;48.978;9.294;2022-08-19T09:28:43;98647.81;;;22.27;78.52
49877;BME280;35771;48.978;9.294;2022-08-19T09:31:10;98630.66;;;22.25;78.92
49877;BME280;35771;48.978;9.294;2022-08-19T09:33:37;98638.69;;;22.12;79.54
49877;BME280;35771;48.978;9.294;2022-08-19T09:36:05;98648.38;;;22.19;79.10
49877;BME280;35771;48.978;9.294;2022-08-19T09:38:32;98645.81;;;22.02;80.32
49877;BME280;35771;48.978;9.294;2022-08-19T09:41:04;98640.00;;;21.99;81.41
49877;BME280;35771;48.978;9.294;2022-08-19T09:43:31;98641.16;;;22.13;80.85
49877;BME280;35771;48.978;9.294;2022-08-19T09:45:58;98646.09;;;22.01;80.14
49877;BME280;35771;48.978;9.294;2022-08-19T09:48:25;98645.56;;;21.99;81.31
49877;BME280;35771;48.978;9.294;2022-08-19T09:50:52;98647.25;;;22.15;80.84
49877;BME280;35771;48.978;9.294;2022-08-19T09:53:18;98646.69;;;22.08;81.06
49877;BME280;35771;48.978;9.294;2022-08-19T09:55:47;98645.03;;;22.17;80.27
49877;BME280;35771;48.978;9.294;2022-08-19T09:58:15;98638.09;;;22.09;81.11
49877;BME280;35771;48.978;9.294;2022-08-19T10:00:41;98651.38;;;22.13;80.86
49877;BME280;35771;48.978;9.294;2022-08-19T10:03:08;98651.13;;;22.09;80.84
49877;BME280;35771;48.978;9.294;2022-08-19T10:05:36;98647.22;;;22.05;80.81
49877;BME280;35771;48.978;9.294;2022-08-19T10:08:17;98644.47;;;22.05;81.77
49877;BME280;35771;48.978;9.294;2022-08-19T10:10:44;98649.72;;;22.01;82.40
49877;BME280;35771;48.978;9.294;2022-08-19T10:13:11;98648.03;;;22.00;81.96
49877;BME280;35771;48.978;9.294;2022-08-19T10:15:39;98649.44;;;22.08;81.87
49877;BME280;35771;48.978;9.294;2022-08-19T10:18:06;98654.41;;;22.01;82.33
49877;BME280;35771;48.978;9.294;2022-08-19T10:20:32;98651.66;;;22.06;81.49
49877;BME280;35771;48.978;9.294;2022-08-19T10:23:00;98642.22;;;22.07;81.38
49877;BME280;35771;48.978;9.294;2022-08-19T10:25:27;98639.22;;;22.19;80.86
49877;BME280;35771;48.978;9.294;2022-08-19T10:27:53;98627.94;;;22.46;80.09
49877;BME280;35771;48.978;9.294;2022-08-19T10:30:20;98616.59;;;22.73;78.27
49877;BME280;35771;48.978;9.294;2022-08-19T10:32:48;98623.47;;;23.02;76.72
49877;BME280;35771;48.978;9.294;2022-08-19T10:35:14;98626.78;;;23.24;75.59
49877;BME280;35771;48.978;9.294;2022-08-19T10:37:42;98627.88;;;23.28;75.55
49877;BME280;35771;48.978;9.294;2022-08-19T10:40:09;98627.25;;;23.47;73.84
49877;BME280;35771;48.978;9.294;2022-08-19T10:42:37;98626.22;;;23.32;74.32
49877;BME280;35771;48.978;9.294;2022-08-19T10:45:04;98618.72;;;23.33;73.39
49877;BME280;35771;48.978;9.294;2022-08-19T10:47:32;98618.09;;;23.46;74.22
49877;BME280;35771;48.978;9.294;2022-08-19T10:50:00;98612.56;;;23.46;72.53
49877;BME280;35771;48.978;9.294;2022-08-19T10:52:46;98626.69;;;23.50;72.36
49877;BME280;35771;48.978;9.294;2022-08-19T10:55:13;98609.25;;;23.44;71.62
49877;BME280;35771;48.978;9.294;2022-08-19T10:57:58;98625.00;;;23.54;70.97
49877;BME280;35771;48.978;9.294;2022-08-19T11:00:25;98611.50;;;23.37;68.28
49877;BME280;35771;48.978;9.294;2022-08-19T11:02:51;98619.28;;;23.35;68.39
49877;BME280;35771;48.978;9.294;2022-08-19T11:05:19;98620.66;;;23.27;69.84
49877;BME280;35771;48.978;9.294;2022-08-19T11:07:47;98615.41;;;23.31;69.60
49877;BME280;35771;48.978;9.294;2022-08-19T11:10:15;98618.09;;;23.46;66.73
49877;BME280;35771;48.978;9.294;2022-08-19T11:12:44;98624.72;;;23.61;66.67
49877;BME280;35771;48.978;9.294;2022-08-19T11:15:12;98612.72;;;23.76;65.21
49877;BME280;35771;48.978;9.294;2022-08-19T11:17:41;98599.44;;;23.73;63.37
49877;BME280;35771;48.978;9.294;2022-08-19T11:20:10;98615.47;;;23.86;63.49
49877;BME280;35771;48.978;9.294;2022-08-19T11:22:39;98621.94;;;24.21;62.26
49877;BME280;35771;48.978;9.294;2022-08-19T11:25:07;98617.16;;;24.27;61.83
49877;BME280;35771;48.978;9.294;2022-08-19T11:27:37;98605.88;;;24.52;61.28
49877;BME280;35771;48.978;9.294;2022-08-19T11:30:05;98612.22;;;24.58;60.59
49877;BME280;35771;48.978;9.294;2022-08-19T11:32:32;98595.81;;;24.62;60.73
49877;BME280;35771;48.978;9.294;2022-08-19T11:34:59;98598.44;;;24.77;58.59
49877;BME280;35771;48.978;9.294;2022-08-19T11:37:26;98599.06;;;24.69;58.86
49877;BME280;35771;48.978;9.294;2022-08-19T11:39:56;98599.13;;;24.64;58.70
49877;BME280;35771;48.978;9.294;2022-08-19T11:42:22;98618.34;;;24.60;58.18
49877;BME280;35771;48.978;9.294;2022-08-19T11:45:07;98615.63;;;24.45;57.95
49877;BME280;35771;48.978;9.294;2022-08-19T11:47:35;98619.09;;;24.66;57.91
49877;BME280;35771;48.978;9.294;2022-08-19T11:50:05;98607.47;;;24.93;57.00
49877;BME280;35771;48.978;9.294;2022-08-19T11:52:31;98611.47;;;24.82;56.79
49877;BME280;35771;48.978;9.294;2022-08-19T11:54:59;98597.16;;;24.64;56.72
49877;BME280;35771;48.978;9.294;2022-08-19T11:57:26;98611.91;;;24.65;56.82
49877;BME280;35771;48.978;9.294;2022-08-19T11:59:52;98605.75;;;24.68;57.24
49877;BME280;35771;48.978;9.294;2022-08-19T12:02:19;98609.41;;;24.63;56.15
49877;BME280;35771;48.978;9.294;2022-08-19T12:04:46;98620.53;;;24.63;56.16
49877;BME280;35771;48.978;9.294;2022-08-19T12:07:13;98615.91;;;24.48;56.33
49877;BME280;35771;48.978;9.294;2022-08-19T12:09:40;98618.75;;;24.38;57.06
49877;BME280;35771;48.978;9.294;2022-08-19T12:12:08;98605.75;;;24.28;57.38
49877;BME280;35771;48.978;9.294;2022-08-19T12:14:35;98614.31;;;24.37;57.22
49877;BME280;35771;48.978;9.294;2022-08-19T12:17:01;98621.69;;;24.52;57.03
49877;BME280;35771;48.978;9.294;2022-08-19T12:19:29;98617.53;;;24.49;56.79
49877;BME280;35771;48.978;9.294;2022-08-19T12:21:58;98599.47;;;24.52;56.89
49877;BME280;35771;48.978;9.294;2022-08-19T12:24:26;98604.78;;;24.83;56.36
49877;BME280;35771;48.978;9.294;2022-08-19T12:26:53;98600.16;;;25.02;55.38
49877;BME280;35771;48.978;9.294;2022-08-19T12:29:22;98596.38;;;24.88;55.22
49877;BME280;35771;48.978;9.294;2022-08-19T12:31:49;98596.06;;;24.95;55.90
49877;BME280;35771;48.978;9.294;2022-08-19T12:34:15;98605.53;;;24.94;55.81
49877;BME280;35771;48.978;9.294;2022-08-19T12:36:42;98606.13;;;24.85;55.73
49877;BME280;35771;48.978;9.294;2022-08-19T12:39:08;98612.84;;;24.84;56.16
49877;BME280;35771;48.978;9.294;2022-08-19T12:41:35;98599.69;;;24.90;56.11
49877;BME280;35771;48.978;9.294;2022-08-19T12:44:02;98604.31;;;24.76;56.43
49877;BME280;35771;48.978;9.294;2022-08-19T12:46:30;98607.91;;;24.76;56.74
49877;BME280;35771;48.978;9.294;2022-08-19T12:48:56;98606.91;;;24.96;55.50
49877;BME280;35771;48.978;9.294;2022-08-19T12:51:24;98597.47;;;24.92;55.44
49877;BME280;35771;48.978;9.294;2022-08-19T12:53:52;98606.16;;;25.09;55.34
49877;BME280;35771;48.978;9.294;2022-08-19T12:56:18;98599.56;;;24.76;55.56
49877;BME280;35771;48.978;9.294;2022-08-19T12:58:45;98603.25;;;24.96;54.84
49877;BME280;35771;48.978;9.294;2022-08-19T13:01:13;98617.78;;;25.17;54.96
49877;BME280;35771;48.978;9.294;2022-08-19T13:03:44;98613.69;;;25.38;53.80
49877;BME280;35771;48.978;9.294;2022-08-19T13:06:11;98608.66;;;25.40;54.60
49877;BME280;35771;48.978;9.294;2022-08-19T13:08:37;98605.47;;;25.52;55.67
49877;BME280;35771;48.978;9.294;2022-08-19T13:11:11;98604.59;;;25.52;56.13
49877;BME280;35771;48.978;9.294;2022-08-19T13:13:40;98612.50;;;25.44;56.18
49877;BME280;35771;48.978;9.294;2022-08-19T13:16:08;98606.75;;;25.36;55.86
49877;BME280;35771;48.978;9.294;2022-08-19T13:18:34;98609.69;;;25.20;56.02
49877;BME280;35771;48.978;9.294;2022-08-19T13:21:04;98621.34;;;25.22;55.25
49877;BME280;35771;48.978;9.294;2022-08-19T13:23:31;98621.09;;;24.95;56.12
49877;BME280;35771;48.978;9.294;2022-08-19T13:25:58;98610.09;;;24.79;57.63
49877;BME280;35771;48.978;9.294;2022-08-19T13:28:25;98613.25;;;24.67;58.28
49877;BME280;35771;48.978;9.294;2022-08-19T13:30:51;98610.38;;;24.78;58.74
49877;BME280;35771;48.978;9.294;2022-08-19T13:33:35;98625.38;;;24.82;60.02
49877;BME280;35771;48.978;9.294;2022-08-19T13:36:04;98619.59;;;24.73;61.71
49877;BME280;35771;48.978;9.294;2022-08-19T13:38:32;98617.75;;;24.63;64.73
49877;BME280;35771;48.978;9.294;2022-08-19T13:41:04;98615.25;;;24.62;66.18
49877;BME280;35771;48.978;9.294;2022-08-19T13:43:31;98616.88;;;24.68;65.17
49877;BME280;35771;48.978;9.294;2022-08-19T13:45:58;98605.38;;;24.45;66.50
49877;BME280;35771;48.978;9.294;2022-08-19T13:48:26;98606.66;;;24.58;67.99
49877;BME280;35771;48.978;9.294;2022-08-19T13:50:52;98608.03;;;24.61;66.51
49877;BME280;35771;48.978;9.294;2022-08-19T13:53:20;98609.72;;;24.62;65.70
49877;BME280;35771;48.978;9.294;2022-08-19T13:55:47;98608.59;;;24.58;64.62
49877;BME280;35771;48.978;9.294;2022-08-19T13:58:15;98600.00;;;24.59;62.24
49877;BME280;35771;48.978;9.294;2022-08-19T14:00:44;98607.94;;;24.36;62.34
49877;BME280;35771;48.978;9.294;2022-08-19T14:03:15;98621.53;;;24.38;63.20
49877;BME280;35771;48.978;9.294;2022-08-19T14:05:41;98614.88;;;24.34;67.06
49877;BME280;35771;48.978;9.294;2022-08-19T14:08:10;98628.13;;;24.08;73.31
49877;BME280;35771;48.978;9.294;2022-08-19T14:10:55;98607.72;;;23.78;76.37
49877;BME280;35771;48.978;9.294;2022-08-19T14:13:23;98619.63;;;23.78;77.02
49877;BME280;35771;48.978;9.294;2022-08-19T14:15:53;98631.38;;;23.60;77.07
49877;BME280;35771;48.978;9.294;2022-08-19T14:18:30;98629.47;;;23.50;79.62
49877;BME280;35771;48.978;9.294;2022-08-19T14:20:57;98615.72;;;23.19;86.93
49877;BME280;35771;48.978;9.294;2022-08-19T14:23:23;98629.00;;;23.22;94.28
49877;BME280;35771;48.978;9.294;2022-08-19T14:25:51;98623.47;;;23.02;100.00
49877;BME280;35771;48.978;9.294;2022-08-19T14:28:21;98613.81;;;22.89;100.00
49877;BME280;35771;48.978;9.294;2022-08-19T14:30:48;98625.44;;;22.65;100.00
49877;BME280;35771;48.978;9.294;2022-08-19T14:33:14;98621.00;;;22.49;100.00
49877;BME280;35771;48.978;9.294;2022-08-19T14:35:41;98607.66;;;22.20;100.00
49877;BME280;35771;48.978;9.294;2022-08-19T14:38:14;98614.59;;;22.22;100.00
49877;BME280;35771;48.978;9.294;2022-08-19T14:40:42;98614.34;;;22.24;100.00
49877;BME280;35771;48.978;9.294;2022-08-19T14:43:10;98617.06;;;22.19;100.00
49877;BME280;35771;48.978;9.294;2022-08-19T14:45:38;98611.81;;;22.12;100.00
49877;BME280;35771;48.978;9.294;2022-08-19T14:48:05;98615.97;;;22.04;100.00
49877;BME280;35771;48.978;9.294;2022-08-19T14:50:32;98612.03;;;21.90;100.00
49877;BME280;35771;48.978;9.294;2022-08-19T14:53:00;98609.84;;;22.02;100.00
49877;BME280;35771;48.978;9.294;2022-08-19T14:55:28;98613.94;;;21.74;100.00
49877;BME280;35771;48.978;9.294;2022-08-19T14:57:54;98613.94;;;21.84;100.00
49877;BME280;35771;48.978;9.294;2022-08-19T15:00:22;98623.38;;;21.88;100.00
49877;BME280;35771;48.978;9.294;2022-08-19T15:02:49;98618.09;;;21.71;100.00
49877;BME280;35771;48.978;9.294;2022-08-19T15:05:16;98615.59;;;21.70;100.00
49877;BME280;35771;48.978;9.294;2022-08-19T15:07:43;98625.81;;;21.69;100.00
49877;BME280;35771;48.978;9.294;2022-08-19T15:10:12;98640.34;;;21.49;100.00
49877;BME280;35771;48.978;9.294;2022-08-19T15:12:39;98644.19;;;21.43;100.00
49877;BME280;35771;48.978;9.294;2022-08-19T15:15:07;98644.75;;;21.40;100.00
49877;BME280;35771;48.978;9.294;2022-08-19T15:17:35;98640.28;;;21.29;100.00
49877;BME280;35771;48.978;9.294;2022-08-19T15:20:03;98632.47;;;21.20;100.00
49877;BME280;35771;48.978;9.294;2022-08-19T15:22:30;98643.91;;;21.39;100.00
49877;BME280;35771;48.978;9.294;2022-08-19T15:24:57;98631.94;;;21.24;100.00
49877;BME280;35771;48.978;9.294;2022-08-19T15:27:23;98641.97;;;21.35;100.00
49877;BME280;35771;48.978;9.294;2022-08-19T15:29:49;98640.28;;;21.29;100.00
49877;BME280;35771;48.978;9.294;2022-08-19T15:32:16;98647.50;;;21.35;100.00
49877;BME280;35771;48.978;9.294;2022-08-19T15:34:44;98653.03;;;21.35;100.00
49877;BME280;35771;48.978;9.294;2022-08-19T15:37:13;98649.59;;;21.17;100.00
49877;BME280;35771;48.978;9.294;2022-08-19T15:39:40;98652.63;;;21.16;100.00
49877;BME280;35771;48.978;9.294;2022-08-19T15:42:07;98661.25;;;21.30;100.00
49877;BME280;35771;48.978;9.294;2022-08-19T15:44:33;98644.63;;;21.19;100.00
49877;BME280;35771;48.978;9.294;2022-08-19T15:47:00;98650.41;;;21.18;100.00
49877;BME280;35771;48.978;9.294;2022-08-19T15:49:26;98657.94;;;21.28;100.00
49877;BME280;35771;48.978;9.294;2022-08-19T15:51:54;98649.97;;;21.36;100.00
49877;BME280;35771;48.978;9.294;2022-08-19T15:54:22;98654.97;;;21.39;100.00
49877;BME280;35771;48.978;9.294;2022-08-19T15:56:50;98658.00;;;21.38;100.00
49877;BME280;35771;48.978;9.294;2022-08-19T15:59:35;98652.03;;;21.51;100.00
49877;BME280;35771;48.978;9.294;2022-08-19T16:02:23;98654.53;;;21.63;100.00
49877;BME280;35771;48.978;9.294;2022-08-19T16:05:09;98656.31;;;21.90;100.00
49877;BME280;35771;48.978;9.294;2022-08-19T16:07:52;98657.22;;;22.21;100.00
49877;BME280;35771;48.978;9.294;2022-08-19T16:10:19;98651.19;;;22.50;100.00
49877;BME280;35771;48.978;9.294;2022-08-19T16:12:46;98652.06;;;22.66;100.00
49877;BME280;35771;48.978;9.294;2022-08-19T16:15:12;98659.25;;;22.93;97.52
49877;BME280;35771;48.978;9.294;2022-08-19T16:17:40;98661.47;;;22.96;98.35
49877;BME280;35771;48.978;9.294;2022-08-19T16:20:08;98663.38;;;22.85;97.05
49877;BME280;35771;48.978;9.294;2022-08-19T16:22:36;98661.44;;;22.91;94.61
49877;BME280;35771;48.978;9.294;2022-08-19T16:25:06;98662.31;;;22.91;94.69
49877;BME280;35771;48.978;9.294;2022-08-19T16:27:33;98653.44;;;23.10;91.57
49877;BME280;35771;48.978;9.294;2022-08-19T16:29:59;98658.69;;;23.11;90.14
49877;BME280;35771;48.978;9.294;2022-08-19T16:32:26;98662.56;;;23.21;90.14
49877;BME280;35771;48.978;9.294;2022-08-19T16:34:52;98663.91;;;23.39;89.20
49877;BME280;35771;48.978;9.294;2022-08-19T16:37:19;98655.03;;;23.31;88.64
49877;BME280;35771;48.978;9.294;2022-08-19T16:39:47;98650.63;;;23.05;90.07
49877;BME280;35771;48.978;9.294;2022-08-19T16:42:15;98658.41;;;23.13;88.82
49877;BME280;35771;48.978;9.294;2022-08-19T16:44:43;98665.06;;;23.12;87.93
49877;BME280;35771;48.978;9.294;2022-08-19T16:47:10;98667.28;;;23.15;88.14
49877;BME280;35771;48.978;9.294;2022-08-19T16:49:38;98660.31;;;23.07;87.89
49877;BME280;35771;48.978;9.294;2022-08-19T16:52:05;98665.88;;;22.87;87.85
49877;BME280;35771;48.978;9.294;2022-08-19T16:54:34;98676.41;;;23.00;86.50
49877;BME280;35771;48.978;9.294;2022-08-19T16:57:01;98668.38;;;22.98;87.63
49877;BME280;35771;48.978;9.294;2022-08-19T16:59:29;98669.75;;;22.91;88.20
49877;BME280;35771;48.978;9.294;2022-08-19T17:01:57;98669.22;;;22.68;88.65
49877;BME280;35771;48.978;9.294;2022-08-19T17:04:23;98675.03;;;22.56;89.95
49877;BME280;35771;48.978;9.294;2022-08-19T17:06:50;98682.25;;;22.52;91.15
49877;BME280;35771;48.978;9.294;2022-08-19T17:09:16;98675.59;;;22.48;91.95
49877;BME280;35771;48.978;9.294;2022-08-19T17:11:44;98673.94;;;22.52;91.84
49877;BME280;35771;48.978;9.294;2022-08-19T17:14:11;98676.97;;;22.45;92.95
49877;BME280;35771;48.978;9.294;2022-08-19T17:16:39;98676.41;;;22.49;91.98
49877;BME280;35771;48.978;9.294;2022-08-19T17:19:06;98688.06;;;22.51;92.75
49877;BME280;35771;48.978;9.294;2022-08-19T17:21:35;98684.41;;;22.35;93.84
49877;BME280;35771;48.978;9.294;2022-08-19T17:24:04;98682.19;;;22.37;92.92
49877;BME280;35771;48.978;9.294;2022-08-19T17:26:31;98683.88;;;22.33;93.23
49877;BME280;35771;48.978;9.294;2022-08-19T17:28:58;98687.66;;;22.11;96.20
49877;BME280;35771;48.978;9.294;2022-08-19T17:31:27;98683.75;;;22.07;95.89
49877;BME280;35771;48.978;9.294;2022-08-19T17:33:59;98687.88;;;21.99;96.59
49877;BME280;35771;48.978;9.294;2022-08-19T17:36:28;98679.63;;;22.04;96.14
49877;BME280;35771;48.978;9.294;2022-08-19T17:38:57;98689.56;;;22.05;96.11
49877;BME280;35771;48.978;9.294;2022-08-19T17:41:25;98686.50;;;22.02;95.49
49877;BME280;35771;48.978;9.294;2022-08-19T17:43:52;98684.28;;;21.99;95.99
49877;BME280;35771;48.978;9.294;2022-08-19T17:46:19;98689.25;;;21.91;96.71
49877;BME280;35771;48.978;9.294;2022-08-19T17:48:47;98682.03;;;21.80;97.16
49877;BME280;35771;48.978;9.294;2022-08-19T17:51:18;98701.66;;;21.79;96.95
49877;BME280;35771;48.978;9.294;2022-08-19T17:53:46;98696.91;;;21.69;98.11
49877;BME280;35771;48.978;9.294;2022-08-19T17:56:14;98697.69;;;21.59;97.42
49877;BME280;35771;48.978;9.294;2022-08-19T17:58:41;98699.88;;;21.57;96.86
49877;BME280;35771;48.978;9.294;2022-08-19T18:01:09;98706.47;;;21.51;97.58
49877;BME280;35771;48.978;9.294;2022-08-19T18:03:36;98698.69;;;21.43;97.31
49877;BME280;35771;48.978;9.294;2022-08-19T18:06:03;98698.94;;;21.41;97.31
49877;BME280;35771;48.978;9.294;2022-08-19T18:08:31;98705.53;;;21.35;97.69
49877;BME280;35771;48.978;9.294;2022-08-19T18:11:00;98711.28;;;21.28;97.98
49877;BME280;35771;48.978;9.294;2022-08-19T18:13:28;98704.25;;;21.10;98.35
49877;BME280;35771;48.978;9.294;2022-08-19T18:15:54;98706.00;;;21.21;98.00
49877;BME280;35771;48.978;9.294;2022-08-19T18:18:22;98720.56;;;21.12;98.93
49877;BME280;35771;48.978;9.294;2022-08-19T18:20:49;98718.56;;;21.02;99.35
49877;BME280;35771;48.978;9.294;2022-08-19T18:23:16;98711.38;;;21.01;98.85
49877;BME280;35771;48.978;9.294;2022-08-19T18:25:47;98721.63;;;21.06;98.54
49877;BME280;35771;48.978;9.294;2022-08-19T18:28:14;98720.44;;;20.91;100.00
49877;BME280;35771;48.978;9.294;2022-08-19T18:30:41;98719.28;;;20.87;100.00
49877;BME280;35771;48.978;9.294;2022-08-19T18:33:07;98708.97;;;20.77;100.00
49877;BME280;35771;48.978;9.294;2022-08-19T18:35:39;98714.56;;;20.82;100.00
49877;BME280;35771;48.978;9.294;2022-08-19T18:38:09;98717.03;;;20.84;100.00
49877;BME280;35771;48.978;9.294;2022-08-19T18:40:51;98722.44;;;20.68;100.00
49877;BME280;35771;48.978;9.294;2022-08-19T18:43:35;98726.19;;;20.62;100.00
49877;BME280;35771;48.978;9.294;2022-08-19T18:46:19;98738.53;;;20.55;100.00
49877;BME280;35771;48.978;9.294;2022-08-19T18:49:03;98736.38;;;20.57;100.00
49877;BME280;35771;48.978;9.294;2022-08-19T18:51:30;98733.88;;;20.55;100.00
49877;BME280;35771;48.978;9.294;2022-08-19T18:53:57;98744.81;;;20.45;100.00
49877;BME280;35771;48.978;9.294;2022-08-19T18:56:28;98745.00;;;20.38;100.00
49877;BME280;35771;48.978;9.294;2022-08-19T18:58:56;98736.03;;;20.26;100.00
49877;BME280;35771;48.978;9.294;2022-08-19T19:01:25;98740.09;;;20.18;100.00
49877;BME280;35771;48.978;9.294;2022-08-19T19:03:54;98742.03;;;20.18;100.00
49877;BME280;35771;48.978;9.294;2022-08-19T19:06:24;98747.72;;;20.11;100.00
49877;BME280;35771;48.978;9.294;2022-08-19T19:08:53;98749.53;;;20.00;100.00
49877;BME280;35771;48.978;9.294;2022-08-19T19:11:22;98757.00;;;20.00;100.00
49877;BME280;35771;48.978;9.294;2022-08-19T19:13:51;98765.84;;;20.02;100.00
49877;BME280;35771;48.978;9.294;2022-08-19T19:16:17;98759.50;;;20.01;100.00
49877;BME280;35771;48.978;9.294;2022-08-19T19:18:44;98759.47;;;19.79;100.00
49877;BME280;35771;48.978;9.294;2022-08-19T19:21:10;98748.09;;;19.75;100.00
49877;BME280;35771;48.978;9.294;2022-08-19T19:23:38;98752.44;;;19.71;100.00
49877;BME280;35771;48.978;9.294;2022-08-19T19:26:07;98764.16;;;19.78;100.00
49877;BME280;35771;48.978;9.294;2022-08-19T19:28:36;98760.03;;;19.81;100.00
49877;BME280;35771;48.978;9.294;2022-08-19T19:31:12;98768.31;;;19.81;100.00
49877;BME280;35771;48.978;9.294;2022-08-19T19:33:39;98755.03;;;19.78;100.00
49877;BME280;35771;48.978;9.294;2022-08-19T19:36:06;98765.66;;;19.86;100.00
49877;BME280;35771;48.978;9.294;2022-08-19T19:38:33;98772.06;;;19.92;100.00
49877;BME280;35771;48.978;9.294;2022-08-19T19:41:00;98777.25;;;19.88;100.00
49877;BME280;35771;48.978;9.294;2022-08-19T19:43:26;98768.97;;;19.88;100.00
49877;BME280;35771;48.978;9.294;2022-08-19T19:45:53;98770.31;;;19.86;100.00
49877;BME280;35771;48.978;9.294;2022-08-19T19:48:21;98763.97;;;19.85;100.00
49877;BME280;35771;48.978;9.294;2022-08-19T19:50:49;98779.44;;;19.86;100.00
49877;BME280;35771;48.978;9.294;2022-08-19T19:53:15;98781.69;;;19.89;100.00
49877;BME280;35771;48.978;9.294;2022-08-19T19:55:42;98770.66;;;19.89;100.00
49877;BME280;35771;48.978;9.294;2022-08-19T19:58:08;98766.97;;;19.84;100.00
49877;BME280;35771;48.978;9.294;2022-08-19T20:00:35;98774.22;;;19.90;100.00
49877;BME280;35771;48.978;9.294;2022-08-19T20:03:01;98769.22;;;19.87;100.00
49877;BME280;35771;48.978;9.294;2022-08-19T20:05:29;98774.31;;;19.95;100.00
49877;BME280;35771;48.978;9.294;2022-08-19T20:07:55;98774.38;;;20.00;100.00
49877;BME280;35771;48.978;9.294;2022-08-19T20:10:41;98765.25;;;19.77;100.00
49877;BME280;35771;48.978;9.294;2022-08-19T20:13:09;98788.38;;;19.93;100.00
49877;BME280;35771;48.978;9.294;2022-08-19T20:15:36;98790.63;;;19.96;100.00
49877;BME280;35771;48.978;9.294;2022-08-19T20:18:04;98797.06;;;19.85;100.00
49877;BME280;35771;48.978;9.294;2022-08-19T20:20:32;98789.69;;;19.91;100.00
49877;BME280;35771;48.978;9.294;2022-08-19T20:22:59;98783.34;;;19.90;100.00
49877;BME280;35771;48.978;9.294;2022-08-19T20:25:26;98783.34;;;19.90;100.00
49877;BME280;35771;48.978;9.294;2022-08-19T20:27:52;98789.19;;;19.94;100.00
49877;BME280;35771;48.978;9.294;2022-08-19T20:30:20;98787.47;;;19.88;100.00
49877;BME280;35771;48.978;9.294;2022-08-19T20:32:47;98795.78;;;19.93;100.00
49877;BME280;35771;48.978;9.294;2022-08-19T20:35:16;98800.47;;;19.92;100.00
49877;BME280;35771;48.978;9.294;2022-08-19T20:37:44;98795.53;;;19.94;100.00